Terminal Aerodrome Forecast
Issued by NWS Pocatello, ID

Home | Current Version | Previous Version | Text Only | Print | Product List | Glossary On
Versions: 1 2 3 4 5 6 7 8 9 10 11 12 13
000
FTUS45 KPIH 061730
TAFBYI
TAF
KBYI 061730Z 0618/0718 31008KT P6SM -SHRA VCTS SCT040CB BKN060
      BKN140
     FM062300 32010KT P6SM VCTS FEW040CB SCT100 SCT160
     FM070400 VRB05KT P6SM FEW060 BKN110 BKN160
     FM071400 08007KT P6SM FEW080 SCT140 SCT180=

USA.gov is the U.S. government's official web portal to all federal, state and local government web resources and services.